createdAt,value
2019-01-14T00:02:01.234Z,2.61
2019-01-14T00:04:27.235Z,2.53
2019-01-14T00:06:53.105Z,2.58
2019-01-14T00:09:23.420Z,2.39
2019-01-14T00:11:46.774Z,2.48
2019-01-14T00:14:12.769Z,2.41
2019-01-14T00:16:38.726Z,2.40
2019-01-14T00:19:05.468Z,2.40
2019-01-14T00:21:31.366Z,2.31
2019-01-14T00:23:57.233Z,2.24
2019-01-14T00:26:23.106Z,2.37
2019-01-14T00:28:48.977Z,2.25
2019-01-14T00:31:14.947Z,2.30
2019-01-14T00:33:40.793Z,2.25
2019-01-14T00:36:06.793Z,2.29
2019-01-14T00:38:32.699Z,2.21
2019-01-14T00:40:58.663Z,2.40
2019-01-14T00:43:24.534Z,2.22
2019-01-14T00:45:50.457Z,2.24
2019-01-14T00:48:16.332Z,2.22
2019-01-14T00:50:42.199Z,2.29
2019-01-14T00:53:08.085Z,2.06
2019-01-14T00:55:33.967Z,2.22
2019-01-14T00:57:59.855Z,2.16
2019-01-14T01:00:25.714Z,2.11
2019-01-14T01:02:51.826Z,2.14
2019-01-14T01:05:17.783Z,1.95
2019-01-14T01:07:43.746Z,2.21
2019-01-14T01:10:11.821Z,2.13
2019-01-14T01:12:37.811Z,2.11
2019-01-14T01:15:06.004Z,2.06
2019-01-14T01:17:31.923Z,1.96
2019-01-14T01:19:58.095Z,2.17
2019-01-14T01:22:23.978Z,2.25
2019-01-14T01:24:49.840Z,2.29
2019-01-14T01:27:15.717Z,2.39
2019-01-14T01:29:41.608Z,2.37
2019-01-14T01:32:07.512Z,2.26
2019-01-14T01:34:33.378Z,2.46
2019-01-14T01:36:59.358Z,2.44
2019-01-14T01:39:25.402Z,2.43
2019-01-14T01:41:51.317Z,2.45
2019-01-14T01:44:17.203Z,2.43
2019-01-14T01:46:43.210Z,2.42
2019-01-14T01:49:09.089Z,2.53
2019-01-14T01:51:34.955Z,2.43
2019-01-14T01:54:00.883Z,2.52
2019-01-14T01:56:26.776Z,2.39
2019-01-14T01:58:52.673Z,2.41
2019-01-14T02:01:18.865Z,2.43
2019-01-14T02:03:44.764Z,2.36
2019-01-14T02:06:10.637Z,2.50
2019-01-14T02:08:36.630Z,2.32
2019-01-14T02:11:02.612Z,2.57
2019-01-14T02:13:28.471Z,2.64
2019-01-14T02:15:54.477Z,2.61
2019-01-14T02:18:20.653Z,2.54
2019-01-14T02:20:46.979Z,2.61
2019-01-14T02:23:12.849Z,2.67
2019-01-14T02:25:38.718Z,2.68
2019-01-14T02:28:04.595Z,2.60
2019-01-14T02:30:30.493Z,2.60
2019-01-14T02:32:56.345Z,2.59
2019-01-14T02:35:22.263Z,2.68
2019-01-14T02:37:48.151Z,2.52
2019-01-14T02:40:16.252Z,2.39
2019-01-14T02:42:42.158Z,2.20
2019-01-14T02:45:09.496Z,2.26
2019-01-14T02:47:35.327Z,2.41
2019-01-14T02:50:01.706Z,2.39
2019-01-14T02:52:27.579Z,2.24
2019-01-14T02:54:53.442Z,2.37
2019-01-14T02:57:19.389Z,2.23
2019-01-14T02:59:45.278Z,2.43
2019-01-14T03:02:11.147Z,2.34
2019-01-14T03:04:37.041Z,2.29
2019-01-14T03:07:03.024Z,2.38
2019-01-14T03:09:28.896Z,2.18
2019-01-14T03:11:54.800Z,2.24
2019-01-14T03:14:20.766Z,2.27
2019-01-14T03:16:46.634Z,2.21
2019-01-14T03:19:12.596Z,2.19
2019-01-14T03:21:38.879Z,2.26
2019-01-14T03:24:04.755Z,2.22
2019-01-14T03:26:30.691Z,2.22
2019-01-14T03:28:56.532Z,2.18
2019-01-14T03:31:22.447Z,2.01
2019-01-14T03:33:48.311Z,1.91
2019-01-14T03:36:14.203Z,1.97
2019-01-14T03:38:40.080Z,2.17
2019-01-14T03:41:05.937Z,2.12
2019-01-14T03:43:31.838Z,2.15
2019-01-14T03:45:57.786Z,2.03
2019-01-14T03:48:23.753Z,1.96
2019-01-14T03:50:49.724Z,1.89
2019-01-14T03:53:15.621Z,1.89
2019-01-14T03:55:41.450Z,2.06
2019-01-14T03:58:07.320Z,2.17
2019-01-14T04:00:33.181Z,2.32
2019-01-14T04:02:59.075Z,2.36
2019-01-14T04:05:24.982Z,2.27
2019-01-14T04:07:50.894Z,1.95
2019-01-14T04:10:16.892Z,1.92
2019-01-14T04:12:42.767Z,2.21
2019-01-14T04:15:11.253Z,2.21
2019-01-14T04:17:37.122Z,2.08
2019-01-14T04:20:06.533Z,1.91
2019-01-14T04:22:33.219Z,1.97
2019-01-14T04:24:59.091Z,1.78
2019-01-14T04:27:24.956Z,1.78
2019-01-14T04:29:50.847Z,1.75
2019-01-14T04:32:16.687Z,1.90
2019-01-14T04:34:42.559Z,1.99
2019-01-14T04:37:08.520Z,2.01
2019-01-14T04:39:34.431Z,1.75
2019-01-14T04:42:00.329Z,2.04
2019-01-14T04:44:26.316Z,2.00
2019-01-14T04:46:52.208Z,1.74
2019-01-14T04:49:18.061Z,1.84
2019-01-14T04:51:43.935Z,1.78
2019-01-14T04:54:09.879Z,1.90
2019-01-14T04:56:35.811Z,1.91
2019-01-14T04:59:01.868Z,1.91
2019-01-14T05:01:27.837Z,1.94
2019-01-14T05:03:53.745Z,1.77
2019-01-14T05:06:19.627Z,2.06
2019-01-14T05:08:45.490Z,1.85
2019-01-14T05:11:11.365Z,1.75
2019-01-14T05:13:37.246Z,1.77
2019-01-14T05:16:03.126Z,1.85
2019-01-14T05:18:28.992Z,1.89
2019-01-14T05:20:54.910Z,2.03
2019-01-14T05:23:21.102Z,2.21
2019-01-14T05:25:46.995Z,2.39
2019-01-14T05:28:12.893Z,2.52
2019-01-14T05:30:38.902Z,2.34
2019-01-14T05:33:04.888Z,2.30
2019-01-14T05:35:31.018Z,2.21
2019-01-14T05:37:56.891Z,2.11
2019-01-14T05:40:24.092Z,1.91
2019-01-14T05:42:49.987Z,1.70
2019-01-14T05:45:15.885Z,1.72
2019-01-14T05:47:41.759Z,1.84
2019-01-14T05:50:10.363Z,2.00
2019-01-14T05:52:36.354Z,2.20
2019-01-14T05:55:03.873Z,2.24
2019-01-14T05:57:29.755Z,2.43
2019-01-14T05:59:55.631Z,2.59
2019-01-14T06:02:21.531Z,2.92
2019-01-14T06:04:47.394Z,2.85
2019-01-14T06:07:13.284Z,2.72
2019-01-14T06:09:39.166Z,2.72
2019-01-14T06:12:05.057Z,2.89
2019-01-14T06:14:30.921Z,3.09
2019-01-14T06:16:56.808Z,3.19
2019-01-14T06:19:22.769Z,3.10
2019-01-14T06:21:48.711Z,2.80
2019-01-14T06:24:15.616Z,2.83
2019-01-14T06:26:41.528Z,2.81
2019-01-14T06:29:07.521Z,2.56
2019-01-14T06:31:33.491Z,2.60
2019-01-14T06:33:59.393Z,2.68
2019-01-14T06:36:25.282Z,2.67
2019-01-14T06:38:51.187Z,2.69
2019-01-14T06:41:17.065Z,2.73
2019-01-14T06:43:43.055Z,2.57
2019-01-14T06:46:08.939Z,2.51
2019-01-14T06:48:34.945Z,2.61
2019-01-14T06:51:00.804Z,2.53
2019-01-14T06:53:26.697Z,2.61
2019-01-14T06:55:52.575Z,2.54
2019-01-14T06:58:18.438Z,2.55
2019-01-14T07:00:44.322Z,2.75
2019-01-14T07:03:10.182Z,2.62
2019-01-14T07:05:36.070Z,2.46
2019-01-14T07:08:01.964Z,2.75
2019-01-14T07:10:27.865Z,3.11
2019-01-14T07:12:53.827Z,3.50
2019-01-14T07:15:19.787Z,3.02
2019-01-14T07:17:45.679Z,2.96
2019-01-14T07:20:12.572Z,3.09
2019-01-14T07:22:38.497Z,2.98
2019-01-14T07:25:06.405Z,2.98
2019-01-14T07:27:32.265Z,3.00
2019-01-14T07:29:58.249Z,2.83
2019-01-14T07:32:24.124Z,2.95
2019-01-14T07:34:49.993Z,2.72
2019-01-14T07:37:16.127Z,2.82
2019-01-14T07:39:42.006Z,2.94
2019-01-14T07:42:07.978Z,3.11
2019-01-14T07:44:33.937Z,3.06
2019-01-14T07:46:59.845Z,3.09
2019-01-14T07:49:25.748Z,2.98
2019-01-14T07:51:51.648Z,2.95
2019-01-14T07:54:17.520Z,3.06
2019-01-14T07:56:43.834Z,3.24
2019-01-14T07:59:09.813Z,3.19
2019-01-14T08:01:35.671Z,3.32
2019-01-14T08:04:01.535Z,3.26
2019-01-14T08:06:27.424Z,3.41
2019-01-14T08:08:53.310Z,3.37
2019-01-14T08:11:19.272Z,3.44
2019-01-14T08:13:45.143Z,3.42
2019-01-14T08:16:11.029Z,3.44
2019-01-14T08:18:36.915Z,3.51
2019-01-14T08:21:02.872Z,3.60
2019-01-14T08:23:28.771Z,3.62
2019-01-14T08:25:55.399Z,3.61
2019-01-14T08:28:21.287Z,3.52
2019-01-14T08:30:47.147Z,3.72
2019-01-14T08:33:13.033Z,3.73
2019-01-14T08:35:38.928Z,3.93
2019-01-14T08:38:04.811Z,3.85
2019-01-14T08:40:30.656Z,3.78
2019-01-14T08:42:56.529Z,3.78
2019-01-14T08:45:22.399Z,3.73
2019-01-14T08:47:48.268Z,4.07
2019-01-14T08:50:16.145Z,4.01
2019-01-14T08:52:42.061Z,4.24
2019-01-14T08:55:07.979Z,4.24
2019-01-14T08:57:33.854Z,4.29
2019-01-14T08:59:59.707Z,4.35
2019-01-14T09:02:25.581Z,4.52
2019-01-14T09:04:51.568Z,4.52
2019-01-14T09:07:17.526Z,4.48
2019-01-14T09:09:43.756Z,4.58
2019-01-14T09:12:09.632Z,5.00
2019-01-14T09:14:35.529Z,5.29
2019-01-14T09:17:01.515Z,5.47
2019-01-14T09:19:27.397Z,5.59
2019-01-14T09:21:53.282Z,5.61
2019-01-14T09:24:19.226Z,5.80
2019-01-14T09:26:45.842Z,5.84
2019-01-14T09:29:11.727Z,5.91
2019-01-14T09:31:37.605Z,6.16
2019-01-14T09:34:05.177Z,6.16
2019-01-14T09:36:31.081Z,6.10
2019-01-14T09:38:56.943Z,6.07
2019-01-14T09:41:22.936Z,5.99
2019-01-14T09:43:48.814Z,5.90
2019-01-14T09:46:14.710Z,5.91
2019-01-14T09:48:40.552Z,5.94
2019-01-14T09:51:06.550Z,6.09
2019-01-14T09:53:32.462Z,6.14
2019-01-14T09:55:58.470Z,6.14
2019-01-14T09:58:24.373Z,6.22
2019-01-14T10:00:50.333Z,6.24
2019-01-14T10:03:16.207Z,6.22
2019-01-14T10:05:42.163Z,6.14
2019-01-14T10:08:08.051Z,6.17
2019-01-14T10:10:33.948Z,6.34
2019-01-14T10:12:59.839Z,6.30
2019-01-14T10:15:25.691Z,6.32
2019-01-14T10:17:59.433Z,6.23
2019-01-14T10:20:25.331Z,6.44
2019-01-14T10:22:51.314Z,6.43
2019-01-14T10:25:17.285Z,6.31
2019-01-14T10:27:43.959Z,6.30
2019-01-14T10:30:13.441Z,6.36
2019-01-14T10:32:39.319Z,6.49
2019-01-14T10:35:06.685Z,6.57
2019-01-14T10:37:32.604Z,6.60
2019-01-14T10:39:58.446Z,6.71
2019-01-14T10:42:24.433Z,6.84
2019-01-14T10:44:50.307Z,6.83
2019-01-14T10:47:16.292Z,6.89
2019-01-14T10:49:42.135Z,6.92
2019-01-14T10:52:08.922Z,6.90
2019-01-14T10:54:34.791Z,7.10
2019-01-14T10:57:00.835Z,7.19
2019-01-14T10:59:26.794Z,7.19
2019-01-14T11:01:52.665Z,7.23
2019-01-14T11:04:18.565Z,7.21
2019-01-14T11:06:44.468Z,7.42
2019-01-14T11:09:10.396Z,7.59
2019-01-14T11:11:36.288Z,7.64
2019-01-14T11:14:02.198Z,7.50
2019-01-14T11:16:28.048Z,7.62
2019-01-14T11:18:53.923Z,7.63
2019-01-14T11:21:19.921Z,7.68
2019-01-14T11:23:45.798Z,7.65
2019-01-14T11:26:12.328Z,7.64
2019-01-14T11:28:38.890Z,7.69
2019-01-14T11:31:06.373Z,7.78
2019-01-14T11:33:34.256Z,7.80
2019-01-14T11:36:00.226Z,7.82
2019-01-14T11:38:40.541Z,7.88
2019-01-14T11:41:06.505Z,7.92
2019-01-14T11:43:32.372Z,8.00
2019-01-14T11:45:58.263Z,8.01
2019-01-14T11:48:24.151Z,8.08
2019-01-14T11:50:50.017Z,8.33
2019-01-14T11:53:15.895Z,8.31
2019-01-14T11:55:41.883Z,8.37
2019-01-14T11:58:07.763Z,8.51
2019-01-14T12:00:36.872Z,8.50
2019-01-14T12:03:01.472Z,8.47
2019-01-14T12:05:27.349Z,8.48
2019-01-14T12:07:53.216Z,8.51
2019-01-14T12:10:19.323Z,8.59
2019-01-14T12:12:45.185Z,8.73
2019-01-14T12:15:16.353Z,8.78
2019-01-14T12:17:42.227Z,8.89
2019-01-14T12:20:11.807Z,9.08
2019-01-14T12:22:37.673Z,9.22
2019-01-14T12:25:05.745Z,9.38
2019-01-14T12:27:31.676Z,9.44
2019-01-14T12:29:58.147Z,9.46
2019-01-14T12:32:23.998Z,9.51
2019-01-14T12:34:49.989Z,9.45
2019-01-14T12:37:15.993Z,9.45
2019-01-14T12:39:41.882Z,9.42
2019-01-14T12:42:07.738Z,9.65
2019-01-14T12:44:33.706Z,9.65
2019-01-14T12:46:59.585Z,9.71
2019-01-14T12:49:25.459Z,9.98
2019-01-14T12:51:51.308Z,10.24
2019-01-14T12:54:17.281Z,10.40
2019-01-14T12:56:43.176Z,10.73
2019-01-14T12:59:09.067Z,11.10
2019-01-14T13:01:34.937Z,14.92
2019-01-14T13:04:00.817Z,20.11
2019-01-14T13:06:26.680Z,20.82
2019-01-14T13:08:52.577Z,22.73
2019-01-14T13:11:23.197Z,22.54
2019-01-14T13:13:46.251Z,22.77
2019-01-14T13:16:12.113Z,23.06
2019-01-14T13:18:37.979Z,22.99
2019-01-14T13:21:04.259Z,19.54
2019-01-14T13:23:32.298Z,16.92
2019-01-14T13:25:57.905Z,18.12
2019-01-14T13:28:23.817Z,17.33
2019-01-14T13:30:50.287Z,16.05
2019-01-14T13:33:16.138Z,13.76
2019-01-14T13:35:42.128Z,12.17
2019-01-14T13:38:07.999Z,11.81
2019-01-14T13:40:34.369Z,11.73
2019-01-14T13:43:00.372Z,11.40
2019-01-14T13:45:26.280Z,11.09
2019-01-14T13:47:52.143Z,11.00
2019-01-14T13:50:23.381Z,11.16
2019-01-14T13:52:49.294Z,11.09
2019-01-14T13:55:15.164Z,11.44
2019-01-14T13:57:40.997Z,11.68
2019-01-14T14:00:13.856Z,11.70
2019-01-14T14:02:39.762Z,11.63
2019-01-14T14:05:06.317Z,11.36
2019-01-14T14:07:32.280Z,12.05
2019-01-14T14:09:58.171Z,13.34
2019-01-14T14:12:24.051Z,13.91
2019-01-14T14:14:49.899Z,14.05
2019-01-14T14:17:15.930Z,13.99
2019-01-14T14:19:41.800Z,13.99
2019-01-14T14:22:11.679Z,14.00
2019-01-14T14:24:35.461Z,14.06
2019-01-14T14:27:01.358Z,13.98
2019-01-14T14:29:27.246Z,14.11
2019-01-14T14:31:53.522Z,13.94
2019-01-14T14:34:19.420Z,14.24
2019-01-14T14:36:45.295Z,14.08
2019-01-14T14:39:11.171Z,14.14
2019-01-14T14:41:37.042Z,14.11
2019-01-14T14:44:02.969Z,13.89
2019-01-14T14:46:28.846Z,14.18
2019-01-14T14:48:54.703Z,14.03
2019-01-14T14:51:20.603Z,13.79
2019-01-14T14:53:46.454Z,14.04
2019-01-14T14:56:12.365Z,14.12
2019-01-14T14:58:38.249Z,14.12
2019-01-14T15:01:04.142Z,14.18
2019-01-14T15:03:30.014Z,14.03
2019-01-14T15:05:55.917Z,13.72
2019-01-14T15:08:21.800Z,14.05
2019-01-14T15:10:47.676Z,14.13
2019-01-14T15:13:13.530Z,13.69
2019-01-14T15:15:39.420Z,13.64
2019-01-14T15:18:05.273Z,13.78
2019-01-14T15:20:31.160Z,13.70
2019-01-14T15:22:57.062Z,13.69
2019-01-14T15:25:22.959Z,13.70
2019-01-14T15:27:48.872Z,13.76
2019-01-14T15:30:19.843Z,13.72
2019-01-14T15:32:46.720Z,13.34
2019-01-14T15:35:12.870Z,13.59
2019-01-14T15:37:38.742Z,13.67
2019-01-14T15:40:08.131Z,13.62
2019-01-14T15:42:34.008Z,13.63
2019-01-14T15:44:59.880Z,13.68
2019-01-14T15:47:25.786Z,13.52
2019-01-14T15:49:51.647Z,13.35
2019-01-14T15:52:17.515Z,13.59
2019-01-14T15:54:43.400Z,13.11
2019-01-14T15:57:09.289Z,13.29
2019-01-14T15:59:35.163Z,13.22
2019-01-14T16:02:01.043Z,13.12
2019-01-14T16:04:27.102Z,13.24
2019-01-14T16:06:53.166Z,13.33
2019-01-14T16:09:19.045Z,12.87
2019-01-14T16:11:45.035Z,12.64
2019-01-14T16:14:10.897Z,12.27
2019-01-14T16:16:36.970Z,12.81
2019-01-14T16:19:02.841Z,12.26
2019-01-14T16:21:28.707Z,11.86
2019-01-14T16:23:54.573Z,11.75
2019-01-14T16:26:20.475Z,11.90
2019-01-14T16:28:46.332Z,11.77
2019-01-14T16:31:12.219Z,11.54
2019-01-14T16:33:39.433Z,11.58
2019-01-14T16:36:05.336Z,11.51
2019-01-14T16:38:31.236Z,11.51
2019-01-14T16:40:57.105Z,11.30
2019-01-14T16:43:22.956Z,11.72
2019-01-14T16:45:48.832Z,11.44
2019-01-14T16:48:14.728Z,11.34
2019-01-14T16:50:40.706Z,11.72
2019-01-14T16:53:06.573Z,11.65
2019-01-14T16:55:34.337Z,11.54
2019-01-14T16:58:00.322Z,11.36
2019-01-14T17:00:26.282Z,11.35
2019-01-14T17:02:52.206Z,11.22
2019-01-14T17:05:18.042Z,11.14
2019-01-14T17:07:43.912Z,11.29
2019-01-14T17:10:12.285Z,11.61
2019-01-14T17:12:38.167Z,11.47
2019-01-14T17:15:04.226Z,11.32
2019-01-14T17:17:30.219Z,11.19
2019-01-14T17:19:56.083Z,11.25
2019-01-14T17:22:21.949Z,10.97
2019-01-14T17:24:47.813Z,11.02
2019-01-14T17:27:13.688Z,10.92
2019-01-14T17:29:39.661Z,11.12
2019-01-14T17:32:05.545Z,11.26
2019-01-14T17:34:31.872Z,11.18
2019-01-14T17:36:58.354Z,11.37
2019-01-14T17:39:24.259Z,11.41
2019-01-14T17:41:50.519Z,11.31
2019-01-14T17:44:16.373Z,11.38
2019-01-14T17:46:42.344Z,11.22
2019-01-14T17:49:08.214Z,11.15
2019-01-14T17:51:34.097Z,11.09
2019-01-14T17:54:00.161Z,11.30
2019-01-14T17:56:26.040Z,11.36
2019-01-14T17:58:51.935Z,11.38
2019-01-14T18:01:17.957Z,11.35
2019-01-14T18:03:43.812Z,11.14
2019-01-14T18:06:09.680Z,11.42
2019-01-14T18:08:35.549Z,11.18
2019-01-14T18:11:01.933Z,11.43
2019-01-14T18:13:28.114Z,11.08
2019-01-14T18:15:54.006Z,11.01
2019-01-14T18:18:19.924Z,10.87
2019-01-14T18:20:45.816Z,11.30
2019-01-14T18:23:12.390Z,11.13
2019-01-14T18:25:38.412Z,11.09
2019-01-14T18:28:04.300Z,10.66
2019-01-14T18:30:30.179Z,10.92
2019-01-14T18:32:56.245Z,10.50
2019-01-14T18:35:22.955Z,10.73
2019-01-14T18:37:48.826Z,10.68
2019-01-14T18:40:15.374Z,10.34
2019-01-14T18:42:41.297Z,10.55
2019-01-14T18:45:11.017Z,10.31
2019-01-14T18:47:36.912Z,9.86
2019-01-14T18:50:06.366Z,10.45
2019-01-14T18:52:32.244Z,10.20
2019-01-14T18:54:58.118Z,9.92
2019-01-14T18:57:23.979Z,9.76
2019-01-14T18:59:49.882Z,9.73
2019-01-14T19:02:15.735Z,9.70
2019-01-14T19:04:41.604Z,9.79
2019-01-14T19:07:07.511Z,9.71
2019-01-14T19:09:33.375Z,9.79
2019-01-14T19:11:59.348Z,9.45
2019-01-14T19:14:25.217Z,9.32
2019-01-14T19:16:51.096Z,8.89
2019-01-14T19:19:16.986Z,8.47
2019-01-14T19:21:43.124Z,8.34
2019-01-14T19:24:08.962Z,8.89
2019-01-14T19:26:34.855Z,7.78
2019-01-14T19:29:00.737Z,7.75
2019-01-14T19:31:26.731Z,7.45
2019-01-14T19:33:52.634Z,7.30
2019-01-14T19:36:18.806Z,7.22
2019-01-14T19:38:44.683Z,7.26
2019-01-14T19:41:10.578Z,7.01
2019-01-14T19:43:36.445Z,7.03
2019-01-14T19:46:02.335Z,6.81
2019-01-14T19:48:28.538Z,7.39
2019-01-14T19:50:54.367Z,8.04
2019-01-14T19:53:21.158Z,7.72
2019-01-14T19:55:47.171Z,7.33
2019-01-14T19:58:13.182Z,7.20
2019-01-14T20:00:39.087Z,7.04
2019-01-14T20:03:04.991Z,6.92
2019-01-14T20:05:30.871Z,6.58
2019-01-14T20:07:57.070Z,6.63
2019-01-14T20:10:22.964Z,6.38
2019-01-14T20:12:48.896Z,6.34
2019-01-14T20:15:16.956Z,6.38
2019-01-14T20:17:42.827Z,6.52
2019-01-14T20:20:09.260Z,6.39
2019-01-14T20:22:35.096Z,6.50
2019-01-14T20:25:00.996Z,6.63
2019-01-14T20:27:26.861Z,6.84
2019-01-14T20:29:52.772Z,6.98
2019-01-14T20:32:18.626Z,6.72
2019-01-14T20:34:44.588Z,6.42
2019-01-14T20:37:11.443Z,6.16
2019-01-14T20:39:37.311Z,7.85
2019-01-14T20:42:03.228Z,8.40
2019-01-14T20:44:29.208Z,8.73
2019-01-14T20:46:55.227Z,7.59
2019-01-14T20:49:21.112Z,7.26
2019-01-14T20:51:46.963Z,7.00
2019-01-14T20:54:12.855Z,7.51
2019-01-14T20:56:38.721Z,8.17
2019-01-14T20:59:04.670Z,7.93
2019-01-14T21:01:30.645Z,8.74
2019-01-14T21:03:56.741Z,7.63
2019-01-14T21:06:22.883Z,7.40
2019-01-14T21:08:48.926Z,7.14
2019-01-14T21:11:14.841Z,7.07
2019-01-14T21:13:40.959Z,6.99
2019-01-14T21:16:07.085Z,6.83
2019-01-14T21:18:33.173Z,6.75
2019-01-14T21:20:59.310Z,7.00
2019-01-14T21:23:25.193Z,7.18
2019-01-14T21:25:51.190Z,7.02
2019-01-14T21:28:17.113Z,6.73
2019-01-14T21:30:44.310Z,6.55
2019-01-14T21:33:10.437Z,6.88
2019-01-14T21:35:36.465Z,7.12
2019-01-14T21:38:02.812Z,6.88
2019-01-14T21:40:28.717Z,6.80
2019-01-14T21:42:54.795Z,6.74
2019-01-14T21:45:22.807Z,7.00
2019-01-14T21:47:48.811Z,6.87
2019-01-14T21:50:18.815Z,7.05
2019-01-14T21:52:44.798Z,7.01
2019-01-14T21:55:13.139Z,6.78
2019-01-14T21:57:39.198Z,6.73
2019-01-14T22:00:14.251Z,7.25
2019-01-14T22:02:40.650Z,7.04
2019-01-14T22:05:06.518Z,7.03
2019-01-14T22:07:32.437Z,6.78
2019-01-14T22:09:58.346Z,6.45
2019-01-14T22:12:24.253Z,6.76
2019-01-14T22:14:50.146Z,6.76
2019-01-14T22:17:16.142Z,6.56
2019-01-14T22:19:42.157Z,7.02
2019-01-14T22:22:08.050Z,7.43
2019-01-14T22:24:33.957Z,7.04
2019-01-14T22:26:59.848Z,7.07
2019-01-14T22:29:25.724Z,7.00
2019-01-14T22:31:52.267Z,7.69
2019-01-14T22:34:18.167Z,7.64
2019-01-14T22:36:44.281Z,7.54
2019-01-14T22:39:10.487Z,8.67
2019-01-14T22:41:36.423Z,8.49
2019-01-14T22:44:02.260Z,8.20
2019-01-14T22:46:28.121Z,8.35
2019-01-14T22:48:53.992Z,8.47
2019-01-14T22:51:19.870Z,8.34
2019-01-14T22:53:45.754Z,8.01
2019-01-14T22:56:11.585Z,7.63
2019-01-14T22:58:37.574Z,7.20
2019-01-14T23:01:14.040Z,6.96
2019-01-14T23:03:40.132Z,7.19
2019-01-14T23:06:06.010Z,6.76
2019-01-14T23:08:31.897Z,6.68
2019-01-14T23:10:57.756Z,6.77
2019-01-14T23:13:23.637Z,6.38
2019-01-14T23:15:49.543Z,6.33
2019-01-14T23:18:15.398Z,6.07
2019-01-14T23:20:41.312Z,6.10
2019-01-14T23:23:07.163Z,5.95
2019-01-14T23:25:33.037Z,5.70
2019-01-14T23:27:58.893Z,6.03
2019-01-14T23:30:24.773Z,5.83
2019-01-14T23:32:50.677Z,5.54
2019-01-14T23:35:16.537Z,5.76
2019-01-14T23:37:42.837Z,5.71
2019-01-14T23:40:09.425Z,5.55
2019-01-14T23:42:35.472Z,5.63
2019-01-14T23:45:01.447Z,5.29
2019-01-14T23:47:27.430Z,5.29
2019-01-14T23:49:53.298Z,5.81
2019-01-14T23:52:19.192Z,5.88
2019-01-14T23:54:45.043Z,5.75
2019-01-14T23:57:10.929Z,5.91
2019-01-14T23:59:36.811Z,5.77
